sensor_id;sensor_type;location;lat;lon;timestamp;pressure;altitude;pressure_sealevel;temperature;humidity
61359;BME280;47228;46.762;23.598;2023-08-12T00:00:24;97850.46;;;15.13;68.98
61359;BME280;47228;46.762;23.598;2023-08-12T00:03:12;97849.64;;;15.10;68.92
61359;BME280;47228;46.762;23.598;2023-08-12T00:05:42;97848.31;;;15.06;68.93
61359;BME280;47228;46.762;23.598;2023-08-12T00:08:12;97844.08;;;15.01;68.94
61359;BME280;47228;46.762;23.598;2023-08-12T00:10:40;97842.66;;;14.99;68.95
61359;BME280;47228;46.762;23.598;2023-08-12T00:13:09;97844.98;;;14.96;69.05
61359;BME280;47228;46.762;23.598;2023-08-12T00:15:36;97842.56;;;14.91;68.96
61359;BME280;47228;46.762;23.598;2023-08-12T00:18:05;97840.16;;;14.88;68.91
61359;BME280;47228;46.762;23.598;2023-08-12T00:20:34;97840.92;;;14.84;69.21
61359;BME280;47228;46.762;23.598;2023-08-12T00:23:03;97841.15;;;14.82;69.12
61359;BME280;47228;46.762;23.598;2023-08-12T00:25:31;97838.92;;;14.79;69.14
61359;BME280;47228;46.762;23.598;2023-08-12T00:27:59;97838.64;;;14.75;69.23
61359;BME280;47228;46.762;23.598;2023-08-12T00:30:27;97836.39;;;14.72;69.18
61359;BME280;47228;46.762;23.598;2023-08-12T00:32:55;97836.39;;;14.68;69.26
61359;BME280;47228;46.762;23.598;2023-08-12T00:35:23;97841.18;;;14.65;69.43
61359;BME280;47228;46.762;23.598;2023-08-12T00:37:51;97838.55;;;14.63;69.42
61359;BME280;47228;46.762;23.598;2023-08-12T00:40:19;97835.45;;;14.61;69.18
61359;BME280;47228;46.762;23.598;2023-08-12T00:42:47;97833.95;;;14.59;69.07
61359;BME280;47228;46.762;23.598;2023-08-12T00:45:15;97834.94;;;14.58;69.01
61359;BME280;47228;46.762;23.598;2023-08-12T00:47:43;97831.70;;;14.57;69.10
61359;BME280;47228;46.762;23.598;2023-08-12T00:50:14;97832.81;;;14.57;68.84
61359;BME280;47228;46.762;23.598;2023-08-12T00:52:42;97835.77;;;14.56;69.06
61359;BME280;47228;46.762;23.598;2023-08-12T00:55:11;97837.02;;;14.56;68.90
61359;BME280;47228;46.762;23.598;2023-08-12T00:57:39;97840.05;;;14.56;68.73
61359;BME280;47228;46.762;23.598;2023-08-12T01:00:11;97839.91;;;14.53;68.55
61359;BME280;47228;46.762;23.598;2023-08-12T01:02:44;97842.77;;;14.51;68.57
61359;BME280;47228;46.762;23.598;2023-08-12T01:05:17;97843.65;;;14.50;68.66
61359;BME280;47228;46.762;23.598;2023-08-12T01:07:45;97841.52;;;14.47;68.59
61359;BME280;47228;46.762;23.598;2023-08-12T01:10:14;97839.94;;;14.44;68.65
61359;BME280;47228;46.762;23.598;2023-08-12T01:12:51;97840.27;;;14.42;68.50
61359;BME280;47228;46.762;23.598;2023-08-12T01:15:24;97838.58;;;14.39;68.37
61359;BME280;47228;46.762;23.598;2023-08-12T01:17:54;97837.66;;;14.35;68.51
61359;BME280;47228;46.762;23.598;2023-08-12T01:20:24;97840.48;;;14.31;68.27
61359;BME280;47228;46.762;23.598;2023-08-12T01:23:07;97841.61;;;14.28;68.44
61359;BME280;47228;46.762;23.598;2023-08-12T01:25:36;97837.95;;;14.28;68.48
61359;BME280;47228;46.762;23.598;2023-08-12T01:28:05;97837.26;;;14.28;68.24
61359;BME280;47228;46.762;23.598;2023-08-12T01:30:38;97832.52;;;14.27;68.22
61359;BME280;47228;46.762;23.598;2023-08-12T01:33:13;97832.98;;;14.26;68.30
61359;BME280;47228;46.762;23.598;2023-08-12T01:35:47;97828.63;;;14.25;68.29
61359;BME280;47228;46.762;23.598;2023-08-12T01:38:19;97828.90;;;14.24;68.20
61359;BME280;47228;46.762;23.598;2023-08-12T01:40:48;97829.88;;;14.23;68.15
61359;BME280;47228;46.762;23.598;2023-08-12T01:43:17;97830.19;;;14.21;67.92
61359;BME280;47228;46.762;23.598;2023-08-12T01:45:45;97831.97;;;14.18;67.99
61359;BME280;47228;46.762;23.598;2023-08-12T01:48:13;97829.35;;;14.16;68.06
61359;BME280;47228;46.762;23.598;2023-08-12T01:50:41;97825.70;;;14.14;67.99
61359;BME280;47228;46.762;23.598;2023-08-12T01:53:14;97823.70;;;14.12;67.89
61359;BME280;47228;46.762;23.598;2023-08-12T01:55:43;97823.89;;;14.08;67.81
61359;BME280;47228;46.762;23.598;2023-08-12T01:58:12;97825.06;;;14.05;68.09
61359;BME280;47228;46.762;23.598;2023-08-12T02:00:40;97824.29;;;14.03;67.84
61359;BME280;47228;46.762;23.598;2023-08-12T02:03:08;97822.98;;;14.00;67.73
61359;BME280;47228;46.762;23.598;2023-08-12T02:05:37;97826.55;;;13.99;67.87
61359;BME280;47228;46.762;23.598;2023-08-12T02:08:05;97822.84;;;13.98;67.70
61359;BME280;47228;46.762;23.598;2023-08-12T02:10:33;97823.05;;;13.95;67.72
61359;BME280;47228;46.762;23.598;2023-08-12T02:13:02;97822.38;;;13.92;67.57
61359;BME280;47228;46.762;23.598;2023-08-12T02:15:30;97822.23;;;13.91;67.70
61359;BME280;47228;46.762;23.598;2023-08-12T02:17:59;97819.65;;;13.89;67.71
61359;BME280;47228;46.762;23.598;2023-08-12T02:20:27;97824.80;;;13.85;67.63
61359;BME280;47228;46.762;23.598;2023-08-12T02:22:55;97824.10;;;13.82;67.51
61359;BME280;47228;46.762;23.598;2023-08-12T02:25:23;97828.94;;;13.79;67.59
61359;BME280;47228;46.762;23.598;2023-08-12T02:27:51;97829.23;;;13.77;67.66
61359;BME280;47228;46.762;23.598;2023-08-12T02:30:19;97833.87;;;13.74;67.68
61359;BME280;47228;46.762;23.598;2023-08-12T02:32:48;97838.08;;;13.69;67.76
61359;BME280;47228;46.762;23.598;2023-08-12T02:35:18;97840.31;;;13.65;68.06
61359;BME280;47228;46.762;23.598;2023-08-12T02:37:48;97840.55;;;13.61;68.24
61359;BME280;47228;46.762;23.598;2023-08-12T02:40:17;97836.41;;;13.55;68.19
61359;BME280;47228;46.762;23.598;2023-08-12T02:42:45;97836.74;;;13.51;68.19
61359;BME280;47228;46.762;23.598;2023-08-12T02:45:13;97838.96;;;13.47;68.53
61359;BME280;47228;46.762;23.598;2023-08-12T02:47:41;97835.68;;;13.43;68.51
61359;BME280;47228;46.762;23.598;2023-08-12T02:50:09;97833.77;;;13.39;68.87
61359;BME280;47228;46.762;23.598;2023-08-12T02:52:37;97833.37;;;13.34;68.92
61359;BME280;47228;46.762;23.598;2023-08-12T02:55:05;97833.38;;;13.30;69.06
61359;BME280;47228;46.762;23.598;2023-08-12T02:57:33;97831.49;;;13.27;69.08
61359;BME280;47228;46.762;23.598;2023-08-12T03:00:02;97833.14;;;13.26;69.30
61359;BME280;47228;46.762;23.598;2023-08-12T03:02:31;97832.52;;;13.26;69.15
61359;BME280;47228;46.762;23.598;2023-08-12T03:04:59;97831.37;;;13.25;69.20
61359;BME280;47228;46.762;23.598;2023-08-12T03:07:27;97836.84;;;13.23;69.01
61359;BME280;47228;46.762;23.598;2023-08-12T03:09:56;97833.11;;;13.20;68.98
61359;BME280;47228;46.762;23.598;2023-08-12T03:12:24;97835.42;;;13.17;69.01
61359;BME280;47228;46.762;23.598;2023-08-12T03:14:52;97838.25;;;13.15;69.05
61359;BME280;47228;46.762;23.598;2023-08-12T03:17:20;97838.38;;;13.14;68.98
61359;BME280;47228;46.762;23.598;2023-08-12T03:19:48;97842.42;;;13.13;68.74
61359;BME280;47228;46.762;23.598;2023-08-12T03:22:18;97844.45;;;13.11;68.59
61359;BME280;47228;46.762;23.598;2023-08-12T03:24:47;97847.01;;;13.08;68.74
61359;BME280;47228;46.762;23.598;2023-08-12T03:27:16;97850.50;;;13.06;68.87
61359;BME280;47228;46.762;23.598;2023-08-12T03:29:44;97851.98;;;13.05;69.05
61359;BME280;47228;46.762;23.598;2023-08-12T03:32:12;97850.95;;;13.05;68.86
61359;BME280;47228;46.762;23.598;2023-08-12T03:34:41;97854.17;;;13.06;69.04
61359;BME280;47228;46.762;23.598;2023-08-12T03:37:22;97858.98;;;13.08;69.28
61359;BME280;47228;46.762;23.598;2023-08-12T03:40:03;97860.38;;;13.11;69.16
61359;BME280;47228;46.762;23.598;2023-08-12T03:42:34;97862.88;;;13.13;69.35
61359;BME280;47228;46.762;23.598;2023-08-12T03:45:40;97865.41;;;13.17;69.34
61359;BME280;47228;46.762;23.598;2023-08-12T03:48:10;97869.75;;;13.20;69.56
61359;BME280;47228;46.762;23.598;2023-08-12T03:50:51;97875.05;;;13.23;69.78
61359;BME280;47228;46.762;23.598;2023-08-12T03:53:27;97879.95;;;13.25;69.71
61359;BME280;47228;46.762;23.598;2023-08-12T03:56:46;97887.06;;;13.26;69.97
61359;BME280;47228;46.762;23.598;2023-08-12T03:59:26;97888.41;;;13.25;69.88
61359;BME280;47228;46.762;23.598;2023-08-12T04:02:01;97888.34;;;13.25;70.17
61359;BME280;47228;46.762;23.598;2023-08-12T04:04:29;97885.27;;;13.24;69.62
61359;BME280;47228;46.762;23.598;2023-08-12T04:06:57;97886.33;;;13.25;69.22
61359;BME280;47228;46.762;23.598;2023-08-12T04:09:26;97889.35;;;13.28;69.05
61359;BME280;47228;46.762;23.598;2023-08-12T04:12:11;97885.95;;;13.30;68.72
61359;BME280;47228;46.762;23.598;2023-08-12T04:14:39;97888.28;;;13.35;68.72
61359;BME280;47228;46.762;23.598;2023-08-12T04:17:08;97885.48;;;13.38;68.20
61359;BME280;47228;46.762;23.598;2023-08-12T04:19:37;97885.48;;;13.39;68.10
61359;BME280;47228;46.762;23.598;2023-08-12T04:22:06;97885.23;;;13.41;67.87
61359;BME280;47228;46.762;23.598;2023-08-12T04:24:34;97885.88;;;13.44;67.69
61359;BME280;47228;46.762;23.598;2023-08-12T04:27:03;97889.13;;;13.48;67.61
61359;BME280;47228;46.762;23.598;2023-08-12T04:29:31;97888.81;;;13.51;67.38
61359;BME280;47228;46.762;23.598;2023-08-12T04:32:04;97889.02;;;13.54;67.20
61359;BME280;47228;46.762;23.598;2023-08-12T04:34:31;97890.19;;;13.59;67.13
61359;BME280;47228;46.762;23.598;2023-08-12T04:36:59;97890.30;;;13.64;66.84
61359;BME280;47228;46.762;23.598;2023-08-12T04:39:27;97892.16;;;13.69;66.76
61359;BME280;47228;46.762;23.598;2023-08-12T04:41:55;97888.41;;;13.75;66.62
61359;BME280;47228;46.762;23.598;2023-08-12T04:44:23;97894.35;;;13.81;66.69
61359;BME280;47228;46.762;23.598;2023-08-12T04:46:52;97895.39;;;13.86;66.13
61359;BME280;47228;46.762;23.598;2023-08-12T04:49:20;97896.61;;;13.92;65.92
61359;BME280;47228;46.762;23.598;2023-08-12T04:51:51;97892.56;;;13.97;66.09
61359;BME280;47228;46.762;23.598;2023-08-12T04:54:20;97888.05;;;14.02;66.25
61359;BME280;47228;46.762;23.598;2023-08-12T04:56:49;97890.22;;;14.07;66.42
61359;BME280;47228;46.762;23.598;2023-08-12T04:59:17;97885.75;;;14.12;65.77
61359;BME280;47228;46.762;23.598;2023-08-12T05:01:46;97891.70;;;14.14;65.26
61359;BME280;47228;46.762;23.598;2023-08-12T05:04:35;97895.39;;;14.17;65.05
61359;BME280;47228;46.762;23.598;2023-08-12T05:07:03;97891.83;;;14.20;64.86
61359;BME280;47228;46.762;23.598;2023-08-12T05:09:31;97887.70;;;14.25;64.75
61359;BME280;47228;46.762;23.598;2023-08-12T05:11:59;97887.23;;;14.29;64.83
61359;BME280;47228;46.762;23.598;2023-08-12T05:14:27;97888.05;;;14.35;64.74
61359;BME280;47228;46.762;23.598;2023-08-12T05:16:55;97890.81;;;14.41;64.49
61359;BME280;47228;46.762;23.598;2023-08-12T05:19:23;97892.17;;;14.46;64.05
61359;BME280;47228;46.762;23.598;2023-08-12T05:21:52;97896.67;;;14.53;63.83
61359;BME280;47228;46.762;23.598;2023-08-12T05:24:20;97897.08;;;14.59;63.82
61359;BME280;47228;46.762;23.598;2023-08-12T05:26:50;97894.07;;;14.65;63.42
61359;BME280;47228;46.762;23.598;2023-08-12T05:29:20;97894.60;;;14.71;63.18
61359;BME280;47228;46.762;23.598;2023-08-12T05:31:48;97898.86;;;14.77;63.32
61359;BME280;47228;46.762;23.598;2023-08-12T05:34:16;97899.54;;;14.82;63.37
61359;BME280;47228;46.762;23.598;2023-08-12T05:36:44;97897.19;;;14.88;63.19
61359;BME280;47228;46.762;23.598;2023-08-12T05:39:13;97901.30;;;14.93;62.58
61359;BME280;47228;46.762;23.598;2023-08-12T05:41:43;97897.30;;;14.94;62.06
61359;BME280;47228;46.762;23.598;2023-08-12T05:44:11;97895.80;;;14.96;62.31
61359;BME280;47228;46.762;23.598;2023-08-12T05:46:39;97897.58;;;15.00;62.31
61359;BME280;47228;46.762;23.598;2023-08-12T05:49:07;97894.25;;;15.05;62.29
61359;BME280;47228;46.762;23.598;2023-08-12T05:51:35;97893.23;;;15.10;62.19
61359;BME280;47228;46.762;23.598;2023-08-12T05:54:04;97893.38;;;15.15;62.01
61359;BME280;47228;46.762;23.598;2023-08-12T05:56:32;97892.67;;;15.20;62.35
61359;BME280;47228;46.762;23.598;2023-08-12T05:59:00;97894.10;;;15.26;62.37
61359;BME280;47228;46.762;23.598;2023-08-12T06:01:28;97894.88;;;15.34;61.97
61359;BME280;47228;46.762;23.598;2023-08-12T06:03:56;97896.69;;;15.43;61.64
61359;BME280;47228;46.762;23.598;2023-08-12T06:06:24;97891.55;;;15.50;61.27
61359;BME280;47228;46.762;23.598;2023-08-12T06:08:52;97895.70;;;15.59;60.33
61359;BME280;47228;46.762;23.598;2023-08-12T06:11:20;97894.61;;;15.65;60.25
61359;BME280;47228;46.762;23.598;2023-08-12T06:13:48;97888.38;;;15.73;60.51
61359;BME280;47228;46.762;23.598;2023-08-12T06:16:16;97886.36;;;15.80;60.25
61359;BME280;47228;46.762;23.598;2023-08-12T06:18:44;97883.58;;;15.90;59.91
61359;BME280;47228;46.762;23.598;2023-08-12T06:21:12;97881.40;;;16.00;59.37
61359;BME280;47228;46.762;23.598;2023-08-12T06:23:41;97879.70;;;16.09;59.00
61359;BME280;47228;46.762;23.598;2023-08-12T06:26:08;97878.45;;;16.19;58.47
61359;BME280;47228;46.762;23.598;2023-08-12T06:28:36;97880.00;;;16.29;57.97
61359;BME280;47228;46.762;23.598;2023-08-12T06:31:04;97875.89;;;16.38;58.00
61359;BME280;47228;46.762;23.598;2023-08-12T06:33:32;97878.68;;;16.47;57.51
61359;BME280;47228;46.762;23.598;2023-08-12T06:36:00;97876.65;;;16.54;57.63
61359;BME280;47228;46.762;23.598;2023-08-12T06:38:28;97877.44;;;16.62;57.74
61359;BME280;47228;46.762;23.598;2023-08-12T06:40:56;97873.64;;;16.70;58.09
61359;BME280;47228;46.762;23.598;2023-08-12T06:43:25;97874.70;;;16.79;57.76
61359;BME280;47228;46.762;23.598;2023-08-12T06:45:56;97874.76;;;16.88;57.39
61359;BME280;47228;46.762;23.598;2023-08-12T06:48:24;97869.58;;;16.97;57.51
61359;BME280;47228;46.762;23.598;2023-08-12T06:50:53;97873.86;;;17.07;57.83
61359;BME280;47228;46.762;23.598;2023-08-12T06:53:25;97876.45;;;17.16;57.41
61359;BME280;47228;46.762;23.598;2023-08-12T06:55:54;97880.05;;;17.26;57.28
61359;BME280;47228;46.762;23.598;2023-08-12T06:58:22;97882.29;;;17.38;56.92
61359;BME280;47228;46.762;23.598;2023-08-12T07:00:50;97876.41;;;17.47;57.21
61359;BME280;47228;46.762;23.598;2023-08-12T07:03:20;97873.44;;;17.58;57.55
61359;BME280;47228;46.762;23.598;2023-08-12T07:05:48;97873.63;;;17.70;57.28
61359;BME280;47228;46.762;23.598;2023-08-12T07:08:19;97871.91;;;17.81;57.01
61359;BME280;47228;46.762;23.598;2023-08-12T07:10:47;97870.02;;;17.91;57.01
61359;BME280;47228;46.762;23.598;2023-08-12T07:13:16;97871.28;;;18.02;56.07
61359;BME280;47228;46.762;23.598;2023-08-12T07:15:44;97874.83;;;18.12;55.37
61359;BME280;47228;46.762;23.598;2023-08-12T07:18:12;97876.25;;;18.21;54.85
61359;BME280;47228;46.762;23.598;2023-08-12T07:20:41;97877.08;;;18.28;54.63
61359;BME280;47228;46.762;23.598;2023-08-12T07:23:09;97876.27;;;18.37;55.31
61359;BME280;47228;46.762;23.598;2023-08-12T07:25:37;97874.52;;;18.45;54.88
61359;BME280;47228;46.762;23.598;2023-08-12T07:28:06;97869.38;;;18.53;55.08
61359;BME280;47228;46.762;23.598;2023-08-12T07:30:35;97867.16;;;18.62;55.21
61359;BME280;47228;46.762;23.598;2023-08-12T07:33:04;97868.08;;;18.71;54.61
61359;BME280;47228;46.762;23.598;2023-08-12T07:35:33;97864.84;;;18.81;54.74
61359;BME280;47228;46.762;23.598;2023-08-12T07:38:01;97861.14;;;18.92;55.00
61359;BME280;47228;46.762;23.598;2023-08-12T07:40:29;97860.94;;;19.03;54.45
61359;BME280;47228;46.762;23.598;2023-08-12T07:42:57;97860.23;;;19.12;54.18
61359;BME280;47228;46.762;23.598;2023-08-12T07:45:25;97854.89;;;19.22;54.26
61359;BME280;47228;46.762;23.598;2023-08-12T07:47:53;97853.81;;;19.35;54.35
61359;BME280;47228;46.762;23.598;2023-08-12T07:50:22;97851.79;;;19.49;53.78
61359;BME280;47228;46.762;23.598;2023-08-12T07:52:50;97852.67;;;19.60;53.18
61359;BME280;47228;46.762;23.598;2023-08-12T07:55:18;97857.80;;;19.73;53.09
61359;BME280;47228;46.762;23.598;2023-08-12T07:57:46;97856.77;;;19.86;53.38
61359;BME280;47228;46.762;23.598;2023-08-12T08:00:14;97853.65;;;20.00;53.41
61359;BME280;47228;46.762;23.598;2023-08-12T08:02:42;97852.17;;;20.12;52.61
61359;BME280;47228;46.762;23.598;2023-08-12T08:05:10;97850.30;;;20.24;52.82
61359;BME280;47228;46.762;23.598;2023-08-12T08:07:38;97852.21;;;20.37;52.12
61359;BME280;47228;46.762;23.598;2023-08-12T08:10:07;97851.73;;;20.50;52.02
61359;BME280;47228;46.762;23.598;2023-08-12T08:12:35;97846.19;;;20.64;51.70
61359;BME280;47228;46.762;23.598;2023-08-12T08:15:03;97847.05;;;20.77;50.91
61359;BME280;47228;46.762;23.598;2023-08-12T08:17:31;97847.44;;;20.86;50.40
61359;BME280;47228;46.762;23.598;2023-08-12T08:20:04;97844.72;;;20.95;50.05
61359;BME280;47228;46.762;23.598;2023-08-12T08:22:33;97844.13;;;21.04;50.44
61359;BME280;47228;46.762;23.598;2023-08-12T08:25:02;97842.16;;;21.16;50.40
61359;BME280;47228;46.762;23.598;2023-08-12T08:27:30;97847.41;;;21.28;49.90
61359;BME280;47228;46.762;23.598;2023-08-12T08:29:59;97844.92;;;21.37;49.05
61359;BME280;47228;46.762;23.598;2023-08-12T08:32:27;97842.62;;;21.42;48.78
61359;BME280;47228;46.762;23.598;2023-08-12T08:34:55;97846.75;;;21.46;48.30
61359;BME280;47228;46.762;23.598;2023-08-12T08:37:23;97844.66;;;21.50;48.25
61359;BME280;47228;46.762;23.598;2023-08-12T08:39:51;97844.33;;;21.59;49.02
61359;BME280;47228;46.762;23.598;2023-08-12T08:42:20;97844.98;;;21.73;49.44
61359;BME280;47228;46.762;23.598;2023-08-12T08:44:52;97844.23;;;21.87;48.99
61359;BME280;47228;46.762;23.598;2023-08-12T08:47:26;97842.39;;;22.00;48.06
61359;BME280;47228;46.762;23.598;2023-08-12T08:49:55;97833.86;;;22.08;48.09
61359;BME280;47228;46.762;23.598;2023-08-12T08:52:24;97834.42;;;22.21;47.85
61359;BME280;47228;46.762;23.598;2023-08-12T08:54:53;97833.09;;;22.31;46.88
61359;BME280;47228;46.762;23.598;2023-08-12T08:57:21;97834.18;;;22.42;45.85
61359;BME280;47228;46.762;23.598;2023-08-12T09:00:06;97834.02;;;22.42;44.96
61359;BME280;47228;46.762;23.598;2023-08-12T09:02:43;97836.33;;;22.31;43.50
61359;BME280;47228;46.762;23.598;2023-08-12T09:05:13;97832.03;;;22.14;43.82
61359;BME280;47228;46.762;23.598;2023-08-12T09:07:43;97833.84;;;21.98;43.70
61359;BME280;47228;46.762;23.598;2023-08-12T09:10:12;97833.36;;;21.81;42.88
61359;BME280;47228;46.762;23.598;2023-08-12T09:12:43;97835.89;;;21.78;43.47
61359;BME280;47228;46.762;23.598;2023-08-12T09:15:12;97827.33;;;21.90;43.01
61359;BME280;47228;46.762;23.598;2023-08-12T09:17:40;97826.11;;;22.06;41.92
61359;BME280;47228;46.762;23.598;2023-08-12T09:20:08;97820.52;;;22.25;42.40
61359;BME280;47228;46.762;23.598;2023-08-12T09:22:41;97822.65;;;22.45;41.02
61359;BME280;47228;46.762;23.598;2023-08-12T09:25:09;97819.23;;;22.65;40.77
61359;BME280;47228;46.762;23.598;2023-08-12T09:27:38;97818.45;;;22.83;40.81
61359;BME280;47228;46.762;23.598;2023-08-12T09:30:07;97819.89;;;23.00;40.97
61359;BME280;47228;46.762;23.598;2023-08-12T09:32:36;97818.51;;;23.15;40.15
61359;BME280;47228;46.762;23.598;2023-08-12T09:35:15;97818.75;;;23.25;39.18
61359;BME280;47228;46.762;23.598;2023-08-12T09:37:44;97813.96;;;23.31;38.81
61359;BME280;47228;46.762;23.598;2023-08-12T09:40:12;97809.69;;;23.41;37.74
61359;BME280;47228;46.762;23.598;2023-08-12T09:42:46;97813.37;;;23.54;37.67
61359;BME280;47228;46.762;23.598;2023-08-12T09:45:14;97814.61;;;23.67;37.42
61359;BME280;47228;46.762;23.598;2023-08-12T09:47:43;97815.60;;;23.77;37.16
61359;BME280;47228;46.762;23.598;2023-08-12T09:50:12;97813.53;;;23.89;36.54
61359;BME280;47228;46.762;23.598;2023-08-12T09:52:41;97812.30;;;23.95;35.39
61359;BME280;47228;46.762;23.598;2023-08-12T09:55:11;97811.01;;;23.95;35.43
61359;BME280;47228;46.762;23.598;2023-08-12T09:57:42;97810.38;;;23.97;34.85
61359;BME280;47228;46.762;23.598;2023-08-12T10:00:15;97810.75;;;23.90;34.15
61359;BME280;47228;46.762;23.598;2023-08-12T10:02:50;97802.77;;;23.84;34.52
61359;BME280;47228;46.762;23.598;2023-08-12T10:05:31;97802.13;;;23.91;35.11
61359;BME280;47228;46.762;23.598;2023-08-12T10:07:59;97803.95;;;23.97;34.04
61359;BME280;47228;46.762;23.598;2023-08-12T10:10:33;97808.56;;;23.96;34.20
61359;BME280;47228;46.762;23.598;2023-08-12T10:13:02;97808.31;;;23.91;34.56
61359;BME280;47228;46.762;23.598;2023-08-12T10:15:36;97803.11;;;23.89;35.11
61359;BME280;47228;46.762;23.598;2023-08-12T10:18:08;97803.42;;;24.01;36.10
61359;BME280;47228;46.762;23.598;2023-08-12T10:20:39;97800.44;;;24.21;35.58
61359;BME280;47228;46.762;23.598;2023-08-12T10:23:16;97800.30;;;24.42;34.71
61359;BME280;47228;46.762;23.598;2023-08-12T10:25:47;97797.00;;;24.60;35.29
61359;BME280;47228;46.762;23.598;2023-08-12T10:28:19;97792.09;;;24.88;35.12
61359;BME280;47228;46.762;23.598;2023-08-12T10:30:47;97792.27;;;25.14;33.82
61359;BME280;47228;46.762;23.598;2023-08-12T10:33:15;97790.89;;;25.36;33.75
61359;BME280;47228;46.762;23.598;2023-08-12T10:35:48;97790.23;;;25.54;32.62
61359;BME280;47228;46.762;23.598;2023-08-12T10:38:19;97790.45;;;25.65;32.94
61359;BME280;47228;46.762;23.598;2023-08-12T10:40:48;97788.09;;;25.82;33.20
61359;BME280;47228;46.762;23.598;2023-08-12T10:43:16;97789.21;;;26.03;33.20
61359;BME280;47228;46.762;23.598;2023-08-12T10:45:51;97786.48;;;26.30;33.50
61359;BME280;47228;46.762;23.598;2023-08-12T10:48:24;97782.95;;;26.64;33.24
61359;BME280;47228;46.762;23.598;2023-08-12T10:50:58;97777.45;;;26.96;32.84
61359;BME280;47228;46.762;23.598;2023-08-12T10:53:29;97779.30;;;27.23;32.07
61359;BME280;47228;46.762;23.598;2023-08-12T10:56:04;97778.58;;;27.39;31.00
61359;BME280;47228;46.762;23.598;2023-08-12T10:58:46;97780.41;;;27.46;30.46
61359;BME280;47228;46.762;23.598;2023-08-12T11:01:18;97776.98;;;27.32;30.11
61359;BME280;47228;46.762;23.598;2023-08-12T11:03:48;97778.54;;;27.02;30.37
61359;BME280;47228;46.762;23.598;2023-08-12T11:06:19;97780.67;;;26.77;31.43
61359;BME280;47228;46.762;23.598;2023-08-12T11:08:56;97779.05;;;26.52;31.71
61359;BME280;47228;46.762;23.598;2023-08-12T11:11:25;97776.55;;;26.28;31.95
61359;BME280;47228;46.762;23.598;2023-08-12T11:13:56;97774.06;;;26.23;32.08
61359;BME280;47228;46.762;23.598;2023-08-12T11:16:37;97773.70;;;26.26;31.06
61359;BME280;47228;46.762;23.598;2023-08-12T11:19:07;97771.04;;;26.26;31.16
61359;BME280;47228;46.762;23.598;2023-08-12T11:21:39;97770.04;;;26.39;31.16
61359;BME280;47228;46.762;23.598;2023-08-12T11:24:07;97767.23;;;26.47;30.44
61359;BME280;47228;46.762;23.598;2023-08-12T11:26:36;97771.41;;;26.52;30.00
61359;BME280;47228;46.762;23.598;2023-08-12T11:29:13;97767.68;;;26.59;29.71
61359;BME280;47228;46.762;23.598;2023-08-12T11:31:42;97766.91;;;26.62;29.54
61359;BME280;47228;46.762;23.598;2023-08-12T11:34:10;97770.67;;;26.65;29.46
61359;BME280;47228;46.762;23.598;2023-08-12T11:36:39;97762.81;;;26.73;29.21
61359;BME280;47228;46.762;23.598;2023-08-12T11:39:07;97758.88;;;26.77;29.29
61359;BME280;47228;46.762;23.598;2023-08-12T11:41:35;97757.55;;;26.84;29.44
61359;BME280;47228;46.762;23.598;2023-08-12T11:44:03;97762.65;;;26.82;28.59
61359;BME280;47228;46.762;23.598;2023-08-12T11:46:35;97757.83;;;26.71;28.96
61359;BME280;47228;46.762;23.598;2023-08-12T11:49:03;97756.42;;;26.67;29.08
61359;BME280;47228;46.762;23.598;2023-08-12T11:51:32;97758.90;;;26.63;29.10
61359;BME280;47228;46.762;23.598;2023-08-12T11:54:01;97756.42;;;26.60;29.07
61359;BME280;47228;46.762;23.598;2023-08-12T11:56:29;97750.48;;;26.58;29.06
61359;BME280;47228;46.762;23.598;2023-08-12T11:58:57;97752.52;;;26.59;29.39
61359;BME280;47228;46.762;23.598;2023-08-12T12:01:26;97747.84;;;26.72;29.86
61359;BME280;47228;46.762;23.598;2023-08-12T12:03:59;97748.20;;;26.92;29.66
61359;BME280;47228;46.762;23.598;2023-08-12T12:06:35;97750.48;;;27.10;29.39
61359;BME280;47228;46.762;23.598;2023-08-12T12:09:08;97754.14;;;27.13;28.30
61359;BME280;47228;46.762;23.598;2023-08-12T12:11:42;97753.33;;;27.07;28.02
61359;BME280;47228;46.762;23.598;2023-08-12T12:14:11;97752.06;;;26.99;28.26
61359;BME280;47228;46.762;23.598;2023-08-12T12:16:46;97749.83;;;26.99;28.73
61359;BME280;47228;46.762;23.598;2023-08-12T12:19:19;97749.67;;;27.04;28.97
61359;BME280;47228;46.762;23.598;2023-08-12T12:21:49;97749.98;;;27.08;28.93
61359;BME280;47228;46.762;23.598;2023-08-12T12:24:19;97745.13;;;27.05;28.82
61359;BME280;47228;46.762;23.598;2023-08-12T12:26:47;97742.42;;;26.92;27.78
61359;BME280;47228;46.762;23.598;2023-08-12T12:29:15;97739.02;;;26.69;28.91
61359;BME280;47228;46.762;23.598;2023-08-12T12:31:43;97736.84;;;26.63;29.98
61359;BME280;47228;46.762;23.598;2023-08-12T12:34:11;97736.30;;;26.66;30.27
61359;BME280;47228;46.762;23.598;2023-08-12T12:36:42;97733.81;;;26.65;29.52
61359;BME280;47228;46.762;23.598;2023-08-12T12:39:10;97733.10;;;26.59;29.32
61359;BME280;47228;46.762;23.598;2023-08-12T12:41:38;97738.09;;;26.40;28.58
61359;BME280;47228;46.762;23.598;2023-08-12T12:44:06;97742.80;;;26.16;28.76
61359;BME280;47228;46.762;23.598;2023-08-12T12:46:34;97734.69;;;26.03;29.35
61359;BME280;47228;46.762;23.598;2023-08-12T12:49:03;97731.45;;;25.98;29.92
61359;BME280;47228;46.762;23.598;2023-08-12T12:51:31;97729.69;;;25.92;30.10
61359;BME280;47228;46.762;23.598;2023-08-12T12:53:59;97725.48;;;25.89;29.69
61359;BME280;47228;46.762;23.598;2023-08-12T12:56:27;97723.33;;;25.87;29.61
61359;BME280;47228;46.762;23.598;2023-08-12T12:58:55;97728.21;;;25.81;29.49
61359;BME280;47228;46.762;23.598;2023-08-12T13:01:23;97735.96;;;25.75;29.82
61359;BME280;47228;46.762;23.598;2023-08-12T13:03:51;97733.27;;;25.70;29.85